Time;durP1;ratioP1;P1;durP2;ratioP2;P2;SDS_P1;SDS_P2;PMS_P1;PMS_P2;Temp;Humidity;BMP_temperature;BMP_pressure;BME280_temperature;BME280_humidity;BME280_pressure;Samples;Min_cycle;Max_cycle;Signal;HPM_P1;HPM_P2
2023/03/16 00:03:03;;;;;;;11.07;5.22;;;;;;;4.75;42.54;99828.88;7711249;32;37779;-86
2023/03/16 00:07:20;;;;;;;12.75;5.53;;;;;;;4.96;42.07;99840.19;7711347;32;37095;-86
2023/03/16 00:11:36;;;;;;;12.88;5.55;;;;;;;4.69;42.27;99846.84;7711262;32;40920;-86
2023/03/16 00:16:03;;;;;;;9.07;5.45;;;;;;;4.55;42.30;99855.38;7710703;32;40747;-85
2023/03/16 00:20:19;;;;;;;13.07;5.40;;;;;;;4.25;43.16;99851.63;7682955;32;38796;-86
2023/03/16 00:24:35;;;;;;;9.73;5.30;;;;;;;4.42;42.81;99841.03;7684556;32;37447;-86
2023/03/16 00:28:53;;;;;;;13.73;5.68;;;;;;;4.29;43.23;99842.03;7684396;32;39118;-86
2023/03/16 00:33:10;;;;;;;12.18;6.35;;;;;;;4.10;43.73;99843.13;7684169;32;40702;-86
2023/03/16 00:37:27;;;;;;;11.57;5.87;;;;;;;3.88;44.45;99853.56;7683998;32;38648;-86
2023/03/16 00:41:44;;;;;;;11.27;5.65;;;;;;;4.26;43.95;99853.28;7684118;32;37591;-86
2023/03/16 00:46:05;;;;;;;7.40;5.05;;;;;;;3.99;44.52;99852.00;7683848;32;40026;-86
2023/03/16 00:50:21;;;;;;;15.43;6.75;;;;;;;4.21;44.53;99853.16;7683871;32;40749;-86
2023/03/16 00:54:38;;;;;;;9.23;5.80;;;;;;;4.11;44.96;99864.47;7683515;32;38386;-87
2023/03/16 00:58:56;;;;;;;11.65;6.10;;;;;;;4.01;44.90;99861.50;7683631;32;37761;-86
2023/03/16 01:03:12;;;;;;;10.88;6.37;;;;;;;3.80;45.55;99864.69;7683521;32;39969;-86
2023/03/16 01:07:30;;;;;;;12.70;6.47;;;;;;;3.82;45.41;99858.00;7683370;32;40065;-86
2023/03/16 01:11:50;;;;;;;16.55;6.47;;;;;;;4.02;45.27;99859.62;7683272;32;37530;-86
2023/03/16 01:16:07;;;;;;;12.82;6.90;;;;;;;3.51;46.66;99853.56;7682073;32;37141;-86
2023/03/16 01:20:23;;;;;;;9.10;6.07;;;;;;;3.58;45.97;99862.41;7704516;32;39311;-86
2023/03/16 01:24:40;;;;;;;15.55;5.95;;;;;;;3.37;46.85;99861.78;7709845;32;41303;-86
2023/03/16 01:28:57;;;;;;;10.63;6.00;;;;;;;3.47;46.83;99871.25;7712171;32;37997;-86
2023/03/16 01:33:13;;;;;;;13.18;6.50;;;;;;;3.37;47.16;99860.97;7713080;32;37867;-86
2023/03/16 01:37:30;;;;;;;13.52;5.80;;;;;;;3.23;47.27;99859.47;7712946;32;40125;-86
2023/03/16 01:41:47;;;;;;;13.27;6.10;;;;;;;3.30;47.46;99863.75;7712962;32;39973;-86
2023/03/16 01:46:06;;;;;;;14.35;6.15;;;;;;;3.25;47.24;99862.75;7712732;32;38599;-86
2023/03/16 01:50:22;;;;;;;12.20;6.10;;;;;;;3.30;47.40;99871.81;7712835;32;38091;-86
2023/03/16 01:55:01;;;;;;;13.77;7.05;;;;;;;3.07;47.84;99882.38;7712946;32;39322;-86
2023/03/16 01:59:21;;;;;;;10.85;5.85;;;;;;;3.17;47.72;99883.56;7712942;32;39716;-86
2023/03/16 02:03:38;;;;;;;12.80;5.40;;;;;;;3.21;47.54;99889.31;7699794;32;36583;-86
2023/03/16 02:07:57;;;;;;;9.80;6.00;;;;;;;3.06;48.01;99889.66;7699057;32;36972;-86
2023/03/16 02:12:18;;;;;;;10.73;6.05;;;;;;;3.13;47.96;99900.38;7699546;32;39195;-86
2023/03/16 02:16:34;;;;;;;12.15;6.15;;;;;;;2.59;49.15;99908.84;7712546;32;40777;-86
2023/03/16 02:21:04;;;;;;;12.43;6.60;;;;;;;2.87;48.59;99902.22;7712811;32;37884;-86
2023/03/16 02:25:22;;;;;;;16.58;6.40;;;;;;;3.33;47.42;99908.28;7712548;32;37184;-86
2023/03/16 02:30:03;;;;;;;12.40;7.12;;;;;;;3.21;47.66;99921.66;7712351;32;39964;-86
2023/03/16 02:34:20;;;;;;;11.82;6.57;;;;;;;2.98;48.61;99923.09;7712271;32;39839;-86
2023/03/16 02:38:36;;;;;;;10.13;6.18;;;;;;;2.82;48.98;99926.28;7698559;32;38727;-86
2023/03/16 02:43:05;;;;;;;13.50;5.90;;;;;;;2.40;50.08;99925.94;7712214;32;37912;-86
2023/03/16 02:47:34;;;;;;;13.13;6.10;;;;;;;2.80;48.92;99934.59;7712313;32;39119;-87
2023/03/16 02:51:50;;;;;;;12.50;6.22;;;;;;;2.98;48.29;99943.78;7712180;32;40674;-86
2023/03/16 02:56:08;;;;;;;10.52;6.05;;;;;;;2.98;48.19;99950.00;7711906;32;37918;-86
2023/03/16 03:00:24;;;;;;;12.90;7.15;;;;;;;3.26;47.72;99951.47;7712045;32;37148;-86
2023/03/16 03:04:41;;;;;;;10.65;6.68;;;;;;;3.25;47.94;99949.81;7711993;32;40078;-86
2023/03/16 03:08:58;;;;;;;13.57;6.62;;;;;;;3.47;47.79;99966.41;7711840;32;40064;-85
2023/03/16 03:13:14;;;;;;;16.67;6.43;;;;;;;3.32;48.08;99966.72;7711730;32;37860;-86
2023/03/16 03:17:31;;;;;;;11.48;6.50;;;;;;;3.23;48.66;99968.06;7711564;32;38178;-87
2023/03/16 03:21:47;;;;;;;11.40;6.43;;;;;;;3.09;48.78;99977.28;7698292;32;40000;-86
2023/03/16 03:26:03;;;;;;;16.58;6.93;;;;;;;2.95;49.23;99969.31;7698003;32;40775;-86
2023/03/16 03:30:23;;;;;;;10.55;6.15;;;;;;;2.60;49.64;99971.56;7711678;32;37849;-86
2023/03/16 03:34:41;;;;;;;16.37;6.28;;;;;;;2.82;49.30;99980.16;7711810;32;37870;-86
2023/03/16 03:38:57;;;;;;;11.40;6.22;;;;;;;2.89;49.01;99991.69;7711624;32;39457;-86
2023/03/16 03:43:13;;;;;;;10.80;6.45;;;;;;;3.04;48.81;99990.59;7711572;32;39725;-86
2023/03/16 03:47:30;;;;;;;9.63;6.03;;;;;;;2.79;49.03;99994.03;7711767;32;36387;-86
2023/03/16 03:51:46;;;;;;;16.05;6.72;;;;;;;2.91;49.12;99996.88;7710872;32;38707;-86
2023/03/16 03:56:03;;;;;;;11.30;6.32;;;;;;;2.93;48.81;100000.16;7697593;32;39305;-86
2023/03/16 04:00:20;;;;;;;10.80;6.62;;;;;;;2.81;49.19;100002.72;7711372;32;39964;-86
2023/03/16 04:04:37;;;;;;;11.75;6.37;;;;;;;2.81;49.43;100011.62;7711147;32;37837;-86
2023/03/16 04:08:53;;;;;;;15.27;6.28;;;;;;;2.62;49.88;100018.78;7711227;32;36883;-86
2023/03/16 04:13:09;;;;;;;8.70;6.62;;;;;;;2.89;49.42;100021.31;7711201;32;39997;-85
2023/03/16 04:17:26;;;;;;;12.73;6.40;;;;;;;2.75;49.57;100028.62;7710907;32;40532;-86
2023/03/16 04:21:42;;;;;;;16.17;6.65;;;;;;;2.68;50.35;100035.09;7711412;32;38722;-86
2023/03/16 04:25:59;;;;;;;14.05;6.65;;;;;;;2.40;50.36;100033.56;7697312;32;37923;-86
2023/03/16 04:30:16;;;;;;;13.13;7.35;;;;;;;2.13;51.19;100032.81;7711013;32;39787;-86
2023/03/16 04:34:32;;;;;;;12.10;6.35;;;;;;;2.78;49.65;100046.25;7710856;32;39966;-86
2023/03/16 04:38:49;;;;;;;11.10;6.60;;;;;;;2.27;50.93;100047.88;7696938;32;38687;-86
2023/03/16 04:43:05;;;;;;;13.80;6.80;;;;;;;2.54;50.65;100053.19;7710619;32;37564;-86
2023/03/16 04:47:22;;;;;;;12.82;7.05;;;;;;;2.76;49.87;100064.47;7710612;32;39115;-86
2023/03/16 04:51:39;;;;;;;12.43;6.85;;;;;;;2.90;49.33;100057.16;7710416;32;40815;-86
2023/03/16 04:55:55;;;;;;;21.23;10.10;;;;;;;3.00;48.93;100061.06;7710211;32;37940;-86
2023/03/16 05:00:17;;;;;;;10.80;6.95;;;;;;;2.84;49.72;100076.88;7710278;32;36817;-86
2023/03/16 05:04:34;;;;;;;16.50;7.47;;;;;;;2.68;50.08;100065.53;7713251;32;39202;-86
2023/03/16 05:08:50;;;;;;;12.52;6.80;;;;;;;2.69;50.28;100077.13;7713370;32;39947;-86
2023/03/16 05:13:07;;;;;;;15.30;6.93;;;;;;;2.86;50.08;100089.06;7713425;32;38660;-86
2023/03/16 05:17:23;;;;;;;13.77;6.82;;;;;;;2.83;50.29;100084.13;7699404;32;37079;-86
2023/03/16 05:21:39;;;;;;;11.60;6.78;;;;;;;2.77;49.67;100083.09;7713156;32;39538;-86
2023/03/16 05:25:58;;;;;;;14.35;7.53;;;;;;;2.73;49.85;100089.16;7713132;32;40567;-86
2023/03/16 05:30:16;;;;;;;13.18;7.18;;;;;;;2.90;49.60;100093.00;7713055;32;38820;-87
2023/03/16 05:34:32;;;;;;;13.55;7.25;;;;;;;3.13;48.78;100094.34;7713042;32;37049;-86
2023/03/16 05:38:48;;;;;;;12.77;6.82;;;;;;;3.07;48.76;100106.81;7713122;32;39454;-86
2023/03/16 05:43:05;;;;;;;11.23;6.65;;;;;;;2.93;49.51;100107.91;7712920;32;40775;-86
2023/03/16 05:47:21;;;;;;;13.40;7.32;;;;;;;2.92;49.24;100101.69;7712925;32;37773;-87
2023/03/16 05:51:37;;;;;;;13.00;7.10;;;;;;;2.93;49.10;100108.75;7712783;32;37913;-86
2023/03/16 05:55:54;;;;;;;13.38;6.60;;;;;;;3.16;48.59;100112.78;7712774;32;40025;-86
2023/03/16 06:00:15;;;;;;;11.32;6.95;;;;;;;3.32;48.26;100120.34;7712730;32;39652;-86
2023/03/16 06:04:31;;;;;;;15.25;7.53;;;;;;;3.37;48.25;100125.09;7712873;32;38215;-87
2023/03/16 06:08:48;;;;;;;10.98;7.05;;;;;;;3.23;48.59;100134.31;7712557;32;36982;-87
2023/03/16 06:13:04;;;;;;;11.82;7.00;;;;;;;3.38;48.23;100140.19;7712346;32;39237;-87
2023/03/16 06:17:21;;;;;;;10.65;6.37;;;;;;;3.31;48.13;100136.72;7712223;32;40784;-86
2023/03/16 06:21:37;;;;;;;14.10;6.43;;;;;;;3.35;48.35;100138.78;7712443;32;38639;-87
2023/03/16 06:25:54;;;;;;;12.32;6.75;;;;;;;3.54;47.91;100141.59;7712403;32;37171;-86
2023/03/16 06:30:12;;;;;;;14.95;7.62;;;;;;;3.34;48.49;100153.28;7712522;32;40080;-86
2023/03/16 06:34:28;;;;;;;10.70;6.45;;;;;;;3.67;48.00;100162.22;7712267;32;40149;-86
2023/03/16 06:38:45;;;;;;;14.20;7.15;;;;;;;3.15;48.85;100175.78;7712074;32;37874;-86
2023/03/16 06:43:01;;;;;;;11.15;6.25;;;;;;;3.69;47.78;100177.16;7712234;32;37245;-86
2023/03/16 06:47:17;;;;;;;13.55;7.12;;;;;;;4.05;47.55;100181.06;7712077;32;40171;-86
2023/03/16 06:51:34;;;;;;;19.77;7.43;;;;;;;3.83;48.45;100190.53;7712097;32;39627;-86
2023/03/16 06:55:50;;;;;;;16.02;7.12;;;;;;;3.57;49.92;100195.09;7711933;32;37833;-86
2023/03/16 07:00:08;;;;;;;14.27;7.43;;;;;;;3.86;50.60;100193.63;7712022;32;37233;-87
2023/03/16 07:04:24;;;;;;;16.33;8.15;;;;;;;3.27;51.19;100203.69;7712065;32;40199;-86
2023/03/16 07:08:41;;;;;;;13.62;7.80;;;;;;;3.22;52.11;100208.91;7711877;32;39877;-86
2023/03/16 07:12:57;;;;;;;16.08;7.87;;;;;;;3.41;51.35;100217.13;7711841;32;38673;-87
2023/03/16 07:17:13;;;;;;;14.52;8.10;;;;;;;3.89;51.27;100224.75;7711356;32;36842;-86
2023/03/16 07:21:37;;;;;;;13.32;7.75;;;;;;;4.26;50.65;100217.66;7711860;32;39818;-86
2023/03/16 07:25:56;;;;;;;17.70;8.40;;;;;;;3.78;50.79;100218.19;7710882;32;40546;-86
2023/03/16 07:30:13;;;;;;;12.35;7.47;;;;;;;4.06;51.61;100220.47;7711490;32;37969;-86
2023/03/16 07:34:31;;;;;;;14.95;6.78;;;;;;;4.16;49.65;100222.72;7698423;32;37771;-86
2023/03/16 07:38:47;;;;;;;14.38;7.15;;;;;;;4.65;49.42;100228.31;7711515;32;39402;-87
2023/03/16 07:43:03;;;;;;;14.95;8.43;;;;;;;5.31;48.37;100225.97;7711678;32;40302;-86
2023/03/16 07:47:23;;;;;;;14.15;7.15;;;;;;;5.38;47.94;100232.12;7711635;32;37631;-86
2023/03/16 07:51:41;;;;;;;12.45;6.87;;;;;;;5.12;48.54;100225.12;7711591;32;37319;-86
2023/03/16 07:55:57;;;;;;;13.52;6.30;;;;;;;5.55;47.32;100227.72;7711341;32;40054;-86
2023/03/16 08:00:14;;;;;;;11.12;5.85;;;;;;;6.06;45.17;100225.62;7711311;32;40497;-86
2023/03/16 08:04:33;;;;;;;8.48;5.35;;;;;;;6.55;43.89;100217.31;7698140;32;38605;-86
2023/03/16 08:08:49;;;;;;;11.30;5.65;;;;;;;6.66;42.27;100227.34;7701764;32;308343;-87
2023/03/16 08:13:07;;;;;;;11.48;5.30;;;;;;;6.63;42.31;100222.41;7711220;32;38332;-86
2023/03/16 08:17:26;;;;;;;10.73;5.12;;;;;;;6.85;41.67;100228.06;7710535;32;39178;-86
2023/03/16 08:21:42;;;;;;;10.10;5.22;;;;;;;7.55;41.00;100222.75;7711008;32;38639;-86
2023/03/16 08:26:17;;;;;;;8.50;4.93;;;;;;;7.43;39.29;100226.28;7710592;32;37904;-86
2023/03/16 08:30:34;;;;;;;12.77;5.20;;;;;;;7.48;40.55;100222.88;7710938;32;39126;-86
2023/03/16 08:34:53;;;;;;;9.27;4.50;;;;;;;7.63;39.16;100225.06;7710614;32;40102;-85
2023/03/16 08:39:09;;;;;;;10.07;4.90;;;;;;;8.11;38.33;100225.69;7696942;32;38624;-86
2023/03/16 08:43:27;;;;;;;10.35;4.20;;;;;;;8.42;38.07;100221.59;7710674;32;37241;-86
2023/03/16 08:47:43;;;;;;;7.43;3.92;;;;;;;8.42;36.87;100221.59;7710466;32;39283;-86
2023/03/16 08:52:00;;;;;;;9.27;3.70;;;;;;;8.92;35.96;100222.66;7710397;32;39632;-86
2023/03/16 08:56:16;;;;;;;10.15;4.45;;;;;;;9.26;34.70;100215.22;7710096;32;38020;-86
2023/03/16 09:00:34;;;;;;;8.57;3.70;;;;;;;9.74;33.66;100229.94;7710352;32;37444;-86
2023/03/16 09:04:51;;;;;;;10.48;3.62;;;;;;;9.40;33.53;100232.81;7710135;32;39040;-86
2023/03/16 09:09:08;;;;;;;6.10;3.35;;;;;;;9.89;33.20;100220.28;7710005;32;40525;-86
2023/03/16 09:13:24;;;;;;;6.72;3.47;;;;;;;9.98;31.10;100226.09;7709846;32;38816;-86
2023/03/16 09:17:41;;;;;;;7.07;3.72;;;;;;;10.39;32.38;100223.78;7709523;32;36920;-85
2023/03/16 09:22:00;;;;;;;7.20;3.17;;;;;;;10.57;30.45;100233.44;7710134;32;40532;-86
2023/03/16 09:26:16;;;;;;;8.77;3.60;;;;;;;10.67;30.35;100238.97;7709610;32;39805;-86
2023/03/16 09:30:33;;;;;;;8.00;3.25;;;;;;;10.55;27.48;100230.16;7709531;32;38849;-85
2023/03/16 09:34:50;;;;;;;5.53;2.72;;;;;;;10.93;29.36;100230.97;7709500;32;37127;-86
2023/03/16 09:39:06;;;;;;;7.50;2.85;;;;;;;11.20;28.15;100236.31;7709110;32;39377;-85
2023/03/16 09:43:54;;;;;;;6.90;2.92;;;;;;;10.09;27.87;100255.91;7709267;32;40808;-86
2023/03/16 09:48:14;;;;;;;7.28;2.80;;;;;;;10.74;29.56;100233.31;7696842;32;38016;-86
2023/03/16 09:52:52;;;;;;;8.18;2.65;;;;;;;10.82;26.73;100230.91;7699329;32;37123;-86
2023/03/16 09:57:26;;;;;;;4.70;2.33;;;;;;;11.60;25.42;100227.47;7712696;32;39394;-85
2023/03/16 10:02:04;;;;;;;5.85;3.10;;;;;;;11.22;25.13;100237.69;7700481;32;40916;-86
2023/03/16 10:06:20;;;;;;;4.60;3.03;;;;;;;10.74;27.25;100245.03;7712721;32;38789;-86
2023/03/16 10:11:24;;;;;;;4.15;2.08;;;;;;;10.95;26.36;100234.25;7712552;32;37826;-86
2023/03/16 10:15:41;;;;;;;7.37;2.80;;;;;;;12.14;20.37;100228.19;7603312;32;39149;-86
2023/03/16 10:20:07;;;;;;;4.28;2.05;;;;;;;11.76;21.72;100233.84;7667446;32;39836;-86
2023/03/16 10:25:02;;;;;;;3.83;1.90;;;;;;;12.58;20.33;100228.47;7699875;32;38511;-87
2023/03/16 10:29:18;;;;;;;5.55;2.10;;;;;;;12.74;17.97;100242.94;7685539;32;37317;-85
2023/03/16 10:33:38;;;;;;;4.05;1.80;;;;;;;13.39;20.53;100225.06;7712480;32;38905;-85
2023/03/16 10:37:56;;;;;;;5.57;2.20;;;;;;;13.60;20.14;100221.13;7712213;32;40804;-86
2023/03/16 10:42:20;;;;;;;2.65;1.75;;;;;;;12.83;19.39;100228.72;7712192;32;38757;-86
2023/03/16 10:46:58;;;;;;;4.03;1.80;;;;;;;13.92;18.51;100222.59;7712274;32;37926;-86
2023/03/16 10:51:16;;;;;;;2.78;1.67;;;;;;;13.42;19.88;100224.47;7712180;32;40152;-86
2023/03/16 10:55:42;;;;;;;4.43;1.85;;;;;;;13.97;17.92;100222.56;7699465;32;40757;-86
2023/03/16 11:00:19;;;;;;;4.75;2.00;;;;;;;14.64;19.36;100216.56;7711079;32;37542;-86
2023/03/16 11:04:36;;;;;;;9.15;1.80;;;;;;;15.40;19.42;100206.72;7712102;32;37041;-86
2023/03/16 11:09:12;;;;;;;5.60;1.87;;;;;;;16.03;16.41;100210.28;7712024;32;39205;-86
2023/03/16 11:13:36;;;;;;;4.55;1.80;;;;;;;16.77;17.54;100198.59;7711937;32;40833;-86
2023/03/16 11:17:53;;;;;;;4.47;1.70;;;;;;;16.87;14.59;100201.19;7711747;32;38008;-85
2023/03/16 11:22:13;;;;;;;6.93;2.08;;;;;;;17.31;16.54;100207.22;7711926;32;38012;-86
2023/03/16 11:26:35;;;;;;;2.35;1.52;;;;;;;16.68;17.53;100192.16;7698592;32;40266;-86
2023/03/16 11:31:12;;;;;;;4.10;1.90;;;;;;;17.20;15.55;100195.59;7712076;32;37834;-86
2023/03/16 11:35:52;;;;;;;3.75;2.10;;;;;;;17.39;17.42;100202.94;7700487;32;37911;-87
2023/03/16 11:40:37;;;;;;;4.47;1.90;;;;;;;16.86;18.64;100196.78;7711705;32;37162;-86
2023/03/16 11:45:09;;;;;;;5.40;1.80;;;;;;;17.93;16.11;100198.47;7700184;32;40165;-86
2023/03/16 11:49:43;;;;;;;3.95;1.83;;;;;;;16.94;16.97;100198.03;7711569;32;40624;-86
2023/03/16 11:54:41;;;;;;;3.50;1.67;;;;;;;17.58;16.22;100192.59;7698193;32;37978;-86
2023/03/16 11:59:20;;;;;;;3.12;1.77;;;;;;;17.74;17.65;100189.50;7711329;32;37382;-86
2023/03/16 12:04:03;;;;;;;2.58;1.62;;;;;;;17.84;15.98;100190.09;7698743;32;39459;-86
2023/03/16 12:08:27;;;;;;;3.58;1.65;;;;;;;17.82;16.18;100183.28;7711274;32;40903;-85
2023/03/16 12:13:29;;;;;;;4.37;1.73;;;;;;;17.73;16.12;100185.13;7697457;32;37622;-86
2023/03/16 12:17:47;;;;;;;3.75;1.75;;;;;;;17.84;15.20;100189.28;7711021;32;36808;-86
2023/03/16 12:22:36;;;;;;;2.55;1.70;;;;;;;17.40;15.09;100180.59;7697586;32;39433;-85
2023/03/16 12:26:52;;;;;;;5.45;1.90;;;;;;;18.29;15.51;100181.06;7698697;32;40802;-85
2023/03/16 12:31:41;;;;;;;2.33;1.52;;;;;;;18.12;15.83;100192.78;7710882;32;38112;-85
2023/03/16 12:36:35;;;;;;;3.67;1.80;;;;;;;18.40;14.61;100195.41;7699427;32;37925;-86
2023/03/16 12:41:04;;;;;;;3.30;1.48;;;;;;;18.52;14.79;100189.31;7706765;32;38946;-86
2023/03/16 12:46:06;;;;;;;2.92;1.50;;;;;;;18.45;15.19;100191.72;7697971;32;39935;-86
2023/03/16 12:50:23;;;;;;;4.20;1.73;;;;;;;18.55;15.71;100199.75;7710578;32;37998;-86
2023/03/16 12:55:11;;;;;;;1.85;1.27;;;;;;;19.08;13.73;100181.53;7710473;32;37112;-86
2023/03/16 12:59:41;;;;;;;4.93;2.00;;;;;;;17.98;15.70;100203.88;7698559;32;39257;-86
2023/03/16 13:04:10;;;;;;;4.65;2.12;;;;;;;17.92;15.81;100188.59;7697126;32;39626;-86
2023/03/16 13:08:42;;;;;;;4.75;1.50;;;;;;;18.27;14.93;100177.81;7710022;32;38731;-86
2023/03/16 13:13:10;;;;;;;4.68;1.95;;;;;;;18.55;14.86;100183.19;7710054;32;37030;-86
2023/03/16 13:17:32;;;;;;;3.03;1.52;;;;;;;18.81;13.68;100191.59;7710097;32;37542;-86
2023/03/16 13:22:03;;;;;;;2.95;1.70;;;;;;;18.76;13.26;100167.72;7696226;32;40098;-86
2023/03/16 13:26:42;;;;;;;2.58;1.52;;;;;;;18.59;14.88;100184.16;7713154;32;37952;-87
2023/03/16 13:30:59;;;;;;;4.40;1.87;;;;;;;18.55;12.75;100175.69;7713109;32;37256;-87
2023/03/16 13:35:18;;;;;;;2.72;1.50;;;;;;;18.92;14.04;100175.59;7699678;32;40121;-87
2023/03/16 13:39:34;;;;;;;10.80;1.75;;;;;;;17.33;14.68;100176.59;7712939;32;39988;-87
2023/03/16 13:43:52;;;;;;;5.95;2.03;;;;;;;17.44;14.72;100178.03;7713078;32;38284;-87
2023/03/16 13:48:13;;;;;;;2.28;1.65;;;;;;;17.39;14.37;100169.88;7712945;32;37003;-87
2023/03/16 13:52:33;;;;;;;3.12;1.67;;;;;;;17.74;13.73;100173.78;7712715;32;40178;-87
2023/03/16 13:56:56;;;;;;;3.65;1.60;;;;;;;18.00;14.29;100165.75;7712858;32;40789;-88
2023/03/16 14:01:32;;;;;;;3.50;1.42;;;;;;;18.51;15.36;100171.16;7712825;32;38018;-88
2023/03/16 14:05:49;;;;;;;4.05;1.50;;;;;;;18.94;14.65;100171.38;7712785;32;37707;-87
2023/03/16 14:10:10;;;;;;;5.22;1.65;;;;;;;18.53;12.50;100174.41;7712678;32;38238;-88
2023/03/16 14:14:36;;;;;;;2.87;1.75;;;;;;;18.14;13.73;100184.19;7699020;32;39964;-88
2023/03/16 14:19:02;;;;;;;4.85;1.60;;;;;;;18.67;13.37;100183.41;7712385;32;37596;-88
2023/03/16 14:23:27;;;;;;;5.07;1.55;;;;;;;18.55;12.95;100189.50;7712551;32;36969;-88
2023/03/16 14:27:45;;;;;;;4.93;1.80;;;;;;;18.36;13.93;100175.91;7699075;32;39393;-87
2023/03/16 14:32:02;;;;;;;5.35;1.87;;;;;;;18.34;14.05;100189.22;7698791;32;39693;-87
2023/03/16 14:36:19;;;;;;;10.23;1.67;;;;;;;19.11;13.95;100173.41;7712039;32;38761;-88
2023/03/16 14:40:35;;;;;;;4.18;1.30;;;;;;;17.95;14.30;100182.41;7712390;32;36976;-87
2023/03/16 14:44:58;;;;;;;3.50;1.73;;;;;;;17.71;14.19;100181.84;7712367;32;39225;-87
2023/03/16 14:49:29;;;;;;;1.87;1.50;;;;;;;18.38;13.90;100184.72;7699312;32;40717;-87
2023/03/16 14:53:46;;;;;;;5.85;1.62;;;;;;;18.07;13.74;100189.34;7712717;32;38467;-88
2023/03/16 14:58:03;;;;;;;4.82;1.67;;;;;;;18.26;14.03;100197.44;7712405;32;37378;-87
2023/03/16 15:02:23;;;;;;;3.50;1.70;;;;;;;18.34;15.23;100197.50;7712032;32;40026;-87
2023/03/16 15:06:40;;;;;;;5.05;1.75;;;;;;;18.72;13.99;100199.03;7698813;32;39760;-88
2023/03/16 15:11:03;;;;;;;5.25;1.90;;;;;;;18.50;13.15;100202.63;7711922;32;38039;-87
2023/03/16 15:15:22;;;;;;;4.15;1.62;;;;;;;18.34;13.75;100202.22;7699161;32;36947;-86
2023/03/16 15:19:39;;;;;;;3.75;1.80;;;;;;;18.10;13.89;100195.03;7711430;32;39208;-87
2023/03/16 15:23:57;;;;;;;4.85;2.08;;;;;;;17.98;15.24;100214.91;7711911;32;39613;-87
2023/03/16 15:28:18;;;;;;;3.22;1.52;;;;;;;17.98;14.78;100214.09;7711686;32;37819;-85
2023/03/16 15:32:36;;;;;;;5.07;1.73;;;;;;;17.39;13.80;100219.47;7711866;32;37727;-88
2023/03/16 15:36:53;;;;;;;4.32;1.90;;;;;;;17.44;14.12;100228.47;7711588;32;38151;-87
2023/03/16 15:41:10;;;;;;;3.28;1.60;;;;;;;17.24;14.71;100226.09;7697867;32;40020;-87
2023/03/16 15:45:29;;;;;;;3.60;1.50;;;;;;;17.21;13.71;100230.31;7710782;32;37947;-88
2023/03/16 15:49:47;;;;;;;4.30;1.50;;;;;;;16.70;14.81;100237.53;7711699;32;36022;-87
2023/03/16 15:54:05;;;;;;;2.80;1.50;;;;;;;17.12;15.00;100240.37;7711467;32;40050;-87
2023/03/16 15:58:26;;;;;;;2.85;1.67;;;;;;;16.96;14.52;100239.84;7711411;32;39895;-86
2023/03/16 16:02:43;;;;;;;3.28;1.65;;;;;;;16.65;14.87;100245.88;7697735;32;38737;-87
2023/03/16 16:07:01;;;;;;;4.18;2.28;;;;;;;16.83;14.86;100235.94;7711354;32;37084;-87
2023/03/16 16:11:25;;;;;;;5.25;2.05;;;;;;;16.60;14.99;100253.41;7711379;32;39264;-87
2023/03/16 16:15:45;;;;;;;4.43;2.30;;;;;;;16.48;15.19;100256.63;7711241;32;39613;-86
2023/03/16 16:20:16;;;;;;;7.12;2.47;;;;;;;17.07;15.18;100262.50;7710595;32;37603;-86
2023/03/16 16:24:33;;;;;;;4.20;2.20;;;;;;;16.28;16.05;100269.59;7698292;32;37977;-86
2023/03/16 16:28:50;;;;;;;5.87;2.05;;;;;;;17.18;15.72;100271.44;7711023;32;40098;-87
2023/03/16 16:33:26;;;;;;;7.15;2.67;;;;;;;18.83;14.51;100268.66;7710868;32;40907;-87
2023/03/16 16:37:43;;;;;;;5.95;2.53;;;;;;;19.17;14.53;100278.28;7696886;32;37839;-87
2023/03/16 16:42:00;;;;;;;4.55;2.10;;;;;;;18.96;14.88;100281.56;7710819;32;37562;-87
2023/03/16 16:46:22;;;;;;;9.20;3.75;;;;;;;17.47;16.80;100293.16;7710666;32;40196;-86
2023/03/16 16:50:39;;;;;;;5.72;2.62;;;;;;;16.47;17.08;100288.84;7710733;32;39890;-87
2023/03/16 16:54:55;;;;;;;5.28;2.58;;;;;;;15.54;18.65;100300.25;7710442;32;37979;-86
2023/03/16 16:59:17;;;;;;;6.72;2.50;;;;;;;14.79;19.78;100323.47;7710378;32;37874;-87
2023/03/16 17:03:35;;;;;;;;;;;;;;;14.10;20.62;100328.03;7697606;32;39269;-86
2023/03/16 17:07:51;;;;;;;4.87;2.45;;;;;;;13.50;20.93;100322.50;7710253;32;39022;-86
2023/03/16 17:12:15;;;;;;;4.12;2.00;;;;;;;12.95;22.74;100341.44;7710072;32;38749;-85
2023/03/16 17:16:33;;;;;;;6.47;2.30;;;;;;;12.51;23.22;100336.50;7697340;32;37771;-86
2023/03/16 17:20:51;;;;;;;6.93;3.10;;;;;;;12.17;23.02;100347.91;7681929;32;40846;-86
2023/03/16 17:25:07;;;;;;;7.32;3.95;;;;;;;11.87;23.50;100348.59;7683119;32;39731;-86
2023/03/16 17:29:33;;;;;;;4.37;2.72;;;;;;;11.74;24.56;100352.63;7683367;32;39105;-86
2023/03/16 17:33:51;;;;;;;4.50;2.40;;;;;;;11.42;25.04;100348.09;7683492;32;35211;-85
2023/03/16 17:38:21;;;;;;;5.25;2.70;;;;;;;11.20;25.14;100357.22;7683303;32;38122;-85
2023/03/16 17:42:37;;;;;;;7.35;2.85;;;;;;;10.73;26.19;100362.56;7681973;32;40764;-85
2023/03/16 17:46:54;;;;;;;12.57;6.22;;;;;;;10.53;25.90;100370.28;7682717;32;37643;-86
2023/03/16 17:51:16;;;;;;;10.95;5.37;;;;;;;10.48;23.87;100372.94;7682566;32;37040;-86
2023/03/16 17:55:33;;;;;;;10.53;5.20;;;;;;;10.73;24.27;100378.91;7677227;32;39415;-85
2023/03/16 17:59:49;;;;;;;9.68;4.47;;;;;;;10.40;25.18;100386.22;7679059;32;39860;-85
2023/03/16 18:04:16;;;;;;;8.68;4.30;;;;;;;9.94;27.10;100395.47;7676580;32;37135;-85
2023/03/16 18:08:35;;;;;;;9.40;4.47;;;;;;;10.11;27.07;100395.41;7670902;32;36977;-85
2023/03/16 18:12:58;;;;;;;8.20;4.22;;;;;;;9.89;27.76;100392.69;7683911;32;40624;-84
2023/03/16 18:17:42;;;;;;;9.70;4.70;;;;;;;9.73;27.59;100399.00;7684278;32;39984;-84
2023/03/16 18:22:00;;;;;;;9.93;4.07;;;;;;;9.64;27.89;100404.06;7711286;32;37901;-84
2023/03/16 18:26:18;;;;;;;12.07;4.20;;;;;;;9.65;27.26;100405.69;7712629;32;36355;-84
2023/03/16 18:30:37;;;;;;;9.35;4.32;;;;;;;9.67;27.27;100409.00;7698790;32;39997;-84
2023/03/16 18:34:53;;;;;;;14.55;4.20;;;;;;;9.52;26.55;100408.75;7699090;32;39200;-83
2023/03/16 18:39:16;;;;;;;13.15;4.50;;;;;;;9.34;27.74;100418.84;7712076;32;38455;-84
2023/03/16 18:43:32;;;;;;;8.93;4.65;;;;;;;9.23;27.95;100427.94;7699027;32;37771;-83
2023/03/16 18:47:52;;;;;;;7.55;4.07;;;;;;;8.91;29.37;100435.81;7698528;32;39208;-83
2023/03/16 18:52:16;;;;;;;9.77;4.65;;;;;;;8.88;29.81;100442.56;7699237;32;41322;-83
2023/03/16 18:56:32;;;;;;;11.98;4.43;;;;;;;8.57;31.71;100452.88;7699340;32;38211;-84
2023/03/16 19:00:57;;;;;;;9.82;3.97;;;;;;;8.55;31.28;100462.31;7712029;32;37103;-83
2023/03/16 19:05:18;;;;;;;12.02;4.57;;;;;;;8.49;30.09;100455.97;7698591;32;38460;-84
2023/03/16 19:09:35;;;;;;;8.68;4.87;;;;;;;8.38;31.34;100473.09;7711983;32;39892;-85
2023/03/16 19:13:52;;;;;;;8.48;4.25;;;;;;;8.08;31.92;100465.97;7711699;32;38618;-84
2023/03/16 19:18:10;;;;;;;9.40;4.25;;;;;;;8.00;32.29;100474.47;7711919;32;37376;-84
2023/03/16 19:22:26;;;;;;;9.52;4.75;;;;;;;8.05;32.04;100482.72;7710816;32;39383;-84
2023/03/16 19:26:43;;;;;;;6.90;3.97;;;;;;;8.06;31.59;100485.22;7711749;32;40706;-84
2023/03/16 19:31:26;;;;;;;8.43;4.32;;;;;;;8.15;30.62;100493.81;7711694;32;38657;-84
2023/03/16 19:35:42;;;;;;;8.80;4.20;;;;;;;7.88;31.18;100504.34;7704738;32;37873;-84
2023/03/16 19:40:08;;;;;;;5.87;3.60;;;;;;;7.97;31.47;100507.53;7711758;32;39358;-84
2023/03/16 19:44:27;;;;;;;8.25;3.75;;;;;;;7.74;31.56;100520.03;7711497;32;38257;-84
2023/03/16 19:48:46;;;;;;;7.32;4.05;;;;;;;7.48;31.91;100519.41;7698257;32;38599;-83
2023/03/16 19:53:12;;;;;;;30.05;12.02;;;;;;;7.45;31.79;100525.31;7711582;32;37113;-85
2023/03/16 19:57:28;;;;;;;25.73;12.55;;;;;;;7.31;31.50;100524.72;7698412;32;39384;-84
2023/03/16 20:01:45;;;;;;;8.18;4.90;;;;;;;7.48;31.18;100527.56;7711226;32;40505;-84
2023/03/16 20:06:02;;;;;;;28.50;6.45;;;;;;;7.26;32.18;100540.00;7711260;32;38485;-84
2023/03/16 20:10:22;;;;;;;13.65;4.37;;;;;;;7.09;33.33;100537.16;7711270;32;37890;-84
2023/03/16 20:14:39;;;;;;;8.20;3.87;;;;;;;7.00;33.96;100535.78;7711426;32;39344;-84
2023/03/16 20:18:58;;;;;;;6.93;3.45;;;;;;;6.71;33.91;100557.22;7697417;32;40150;-84